Briefing drone pour Palaja

Rechercher une autre localisation

Conditions de vol :


Nous sommes le : Mercredi 22 septembre 2021
Il est 20:07 UTC (22:07 LT)

Lever de soleil : 05:11 UTC (07:11 LT)
Coucher de soleil : 18:14 UTC (20:14 LT)

Météo

L'essentiel des conditions de vol

VIGILANCE MÉTÉO FRANCE - Aude (11)
Pas de vigilances particulieres
METAR de LFMK
LFMK 222000Z AUTO VRB01KT CAVOK 17/15 Q1021

Date d'émission: 22/09/2021
Heure d'émission: 20:00 UTC
Vent: Variable 1 KT (2 km/h)
Visibilité horizontale: > 10 km
Plafond : Plafond et visibilité OK (CAVOK)
Température: 17 °C
Point de rosée: 15 °C
Humidité: 88%
Pression (QNH): 1021 hPa
TAF de LFMK
LFMK 221800Z 2218/2315 CNL

Conditions prévues :

Heure d'émission : Bulletin éffectué le 22 à 18:00 UTC
Prévision : Valide du 22 a 18:00 UTC au 23 a 15:00 UTC
Nuages : à 0ft (0 m)
WEBCAM POUR PALAJA

Réglementation

Voler en sécurité

CARTES AERONAUTIQUE 1/500.000
CARTES VAC (LFMK)
SUP AIP




Chargement des AIP...
NOTAM (PALAJA + Terrain à proximité / FIR )




Chargement des NOTAMS...
CONTACT PREFECTURE 11


Avertissement : Les données mises à disposition sont indicatives. Oxygène Drone ne pourra être tenu responsable de dégâts causés aux biens et aux personnes.